sensor_id;sensor_type;location;lat;lon;timestamp;temperature;humidity
20744;DHT22;56303;52.160;-0.428;2023-05-07T00:01:06;16.20;99.90
20744;DHT22;56303;52.160;-0.428;2023-05-07T00:03:33;16.10;99.90
20744;DHT22;56303;52.160;-0.428;2023-05-07T00:06:00;16.10;99.90
20744;DHT22;56303;52.160;-0.428;2023-05-07T00:08:27;17.40;99.90
20744;DHT22;56303;52.160;-0.428;2023-05-07T00:10:54;16.00;99.90
20744;DHT22;56303;52.160;-0.428;2023-05-07T00:13:21;16.10;99.90
20744;DHT22;56303;52.160;-0.428;2023-05-07T00:15:47;16.10;99.90
20744;DHT22;56303;52.160;-0.428;2023-05-07T00:18:14;16.20;99.90
20744;DHT22;56303;52.160;-0.428;2023-05-07T00:20:42;16.20;99.90
20744;DHT22;56303;52.160;-0.428;2023-05-07T00:23:09;16.10;99.90
20744;DHT22;56303;52.160;-0.428;2023-05-07T00:25:36;16.00;99.90
20744;DHT22;56303;52.160;-0.428;2023-05-07T00:28:03;16.10;99.90
20744;DHT22;56303;52.160;-0.428;2023-05-07T00:30:30;16.00;99.90
20744;DHT22;56303;52.160;-0.428;2023-05-07T00:32:57;15.90;99.90
20744;DHT22;56303;52.160;-0.428;2023-05-07T00:35:24;15.90;99.90
20744;DHT22;56303;52.160;-0.428;2023-05-07T00:37:51;15.90;99.90
20744;DHT22;56303;52.160;-0.428;2023-05-07T00:40:18;15.90;99.90
20744;DHT22;56303;52.160;-0.428;2023-05-07T00:42:44;16.00;99.90
20744;DHT22;56303;52.160;-0.428;2023-05-07T00:45:14;15.90;99.90
20744;DHT22;56303;52.160;-0.428;2023-05-07T00:47:41;15.90;99.90
20744;DHT22;56303;52.160;-0.428;2023-05-07T00:50:09;15.80;99.90
20744;DHT22;56303;52.160;-0.428;2023-05-07T00:52:39;16.00;99.90
20744;DHT22;56303;52.160;-0.428;2023-05-07T00:55:06;16.10;99.90
20744;DHT22;56303;52.160;-0.428;2023-05-07T00:57:37;16.10;99.90
20744;DHT22;56303;52.160;-0.428;2023-05-07T01:00:07;16.10;99.90
20744;DHT22;56303;52.160;-0.428;2023-05-07T01:02:36;16.10;99.90
20744;DHT22;56303;52.160;-0.428;2023-05-07T01:05:04;16.10;99.90
20744;DHT22;56303;52.160;-0.428;2023-05-07T01:07:33;16.10;99.90
20744;DHT22;56303;52.160;-0.428;2023-05-07T01:10:02;16.00;99.90
20744;DHT22;56303;52.160;-0.428;2023-05-07T01:12:29;16.00;99.90
20744;DHT22;56303;52.160;-0.428;2023-05-07T01:14:57;15.90;99.90
20744;DHT22;56303;52.160;-0.428;2023-05-07T01:17:24;15.90;99.90
20744;DHT22;56303;52.160;-0.428;2023-05-07T01:19:51;15.90;99.90
20744;DHT22;56303;52.160;-0.428;2023-05-07T01:22:31;15.70;99.90
20744;DHT22;56303;52.160;-0.428;2023-05-07T01:24:59;15.70;99.90
20744;DHT22;56303;52.160;-0.428;2023-05-07T01:27:28;15.80;99.90
20744;DHT22;56303;52.160;-0.428;2023-05-07T01:29:55;15.80;99.90
20744;DHT22;56303;52.160;-0.428;2023-05-07T01:35:11;15.60;99.90
20744;DHT22;56303;52.160;-0.428;2023-05-07T01:37:39;15.60;99.90
20744;DHT22;56303;52.160;-0.428;2023-05-07T01:40:07;15.60;99.90
20744;DHT22;56303;52.160;-0.428;2023-05-07T01:42:35;15.60;99.90
20744;DHT22;56303;52.160;-0.428;2023-05-07T01:45:02;15.60;99.90
20744;DHT22;56303;52.160;-0.428;2023-05-07T01:47:30;15.60;99.90
20744;DHT22;56303;52.160;-0.428;2023-05-07T01:49:58;15.60;99.90
20744;DHT22;56303;52.160;-0.428;2023-05-07T01:52:25;15.50;99.90
20744;DHT22;56303;52.160;-0.428;2023-05-07T01:54:52;15.50;99.90
20744;DHT22;56303;52.160;-0.428;2023-05-07T01:57:18;15.50;99.90
20744;DHT22;56303;52.160;-0.428;2023-05-07T01:59:45;15.50;99.90
20744;DHT22;56303;52.160;-0.428;2023-05-07T02:02:12;15.60;99.90
20744;DHT22;56303;52.160;-0.428;2023-05-07T02:04:39;15.70;99.90
20744;DHT22;56303;52.160;-0.428;2023-05-07T02:07:06;15.70;99.90
20744;DHT22;56303;52.160;-0.428;2023-05-07T02:09:32;15.80;99.90
20744;DHT22;56303;52.160;-0.428;2023-05-07T02:11:59;15.60;99.90
20744;DHT22;56303;52.160;-0.428;2023-05-07T02:14:27;15.70;99.90
20744;DHT22;56303;52.160;-0.428;2023-05-07T02:16:53;15.70;99.90
20744;DHT22;56303;52.160;-0.428;2023-05-07T02:19:20;15.70;99.90
20744;DHT22;56303;52.160;-0.428;2023-05-07T02:21:47;15.80;99.90
20744;DHT22;56303;52.160;-0.428;2023-05-07T02:24:14;15.80;99.90
20744;DHT22;56303;52.160;-0.428;2023-05-07T02:26:41;15.90;99.90
20744;DHT22;56303;52.160;-0.428;2023-05-07T02:29:08;15.80;99.90
20744;DHT22;56303;52.160;-0.428;2023-05-07T02:31:35;15.80;99.90
20744;DHT22;56303;52.160;-0.428;2023-05-07T02:34:02;15.80;99.90
20744;DHT22;56303;52.160;-0.428;2023-05-07T02:36:29;15.90;99.90
20744;DHT22;56303;52.160;-0.428;2023-05-07T02:38:55;15.80;99.90
20744;DHT22;56303;52.160;-0.428;2023-05-07T02:41:22;15.80;99.90
20744;DHT22;56303;52.160;-0.428;2023-05-07T02:43:49;15.80;99.90
20744;DHT22;56303;52.160;-0.428;2023-05-07T02:46:16;15.80;99.90
20744;DHT22;56303;52.160;-0.428;2023-05-07T02:48:42;15.70;99.90
20744;DHT22;56303;52.160;-0.428;2023-05-07T02:51:09;15.60;99.90
20744;DHT22;56303;52.160;-0.428;2023-05-07T02:53:36;15.60;99.90
20744;DHT22;56303;52.160;-0.428;2023-05-07T02:56:04;15.60;99.90
20744;DHT22;56303;52.160;-0.428;2023-05-07T02:58:32;15.60;99.90
20744;DHT22;56303;52.160;-0.428;2023-05-07T03:00:59;15.60;99.90
20744;DHT22;56303;52.160;-0.428;2023-05-07T03:03:26;15.60;99.90
20744;DHT22;56303;52.160;-0.428;2023-05-07T03:05:53;15.70;99.90
20744;DHT22;56303;52.160;-0.428;2023-05-07T03:08:20;15.60;99.90
20744;DHT22;56303;52.160;-0.428;2023-05-07T03:10:47;15.40;99.90
20744;DHT22;56303;52.160;-0.428;2023-05-07T03:13:13;15.40;99.90
20744;DHT22;56303;52.160;-0.428;2023-05-07T03:15:40;15.40;99.90
20744;DHT22;56303;52.160;-0.428;2023-05-07T03:18:07;15.50;99.90
20744;DHT22;56303;52.160;-0.428;2023-05-07T03:20:37;15.60;99.90
20744;DHT22;56303;52.160;-0.428;2023-05-07T03:23:04;16.50;99.90
20744;DHT22;56303;52.160;-0.428;2023-05-07T03:25:32;15.60;99.90
20744;DHT22;56303;52.160;-0.428;2023-05-07T03:27:58;15.60;99.90
20744;DHT22;56303;52.160;-0.428;2023-05-07T03:30:25;15.50;99.90
20744;DHT22;56303;52.160;-0.428;2023-05-07T03:32:52;15.60;99.90
20744;DHT22;56303;52.160;-0.428;2023-05-07T03:35:19;16.00;99.90
20744;DHT22;56303;52.160;-0.428;2023-05-07T03:37:46;15.70;99.90
20744;DHT22;56303;52.160;-0.428;2023-05-07T03:40:13;15.70;99.90
20744;DHT22;56303;52.160;-0.428;2023-05-07T03:42:40;15.70;99.90
20744;DHT22;56303;52.160;-0.428;2023-05-07T03:45:08;15.70;99.90
20744;DHT22;56303;52.160;-0.428;2023-05-07T03:47:35;15.80;99.90
20744;DHT22;56303;52.160;-0.428;2023-05-07T03:50:01;15.80;99.90
20744;DHT22;56303;52.160;-0.428;2023-05-07T03:52:28;15.80;99.90
20744;DHT22;56303;52.160;-0.428;2023-05-07T03:54:55;15.80;99.90
20744;DHT22;56303;52.160;-0.428;2023-05-07T03:57:22;15.90;99.90
20744;DHT22;56303;52.160;-0.428;2023-05-07T03:59:49;15.90;99.90
20744;DHT22;56303;52.160;-0.428;2023-05-07T04:02:15;15.90;99.90
20744;DHT22;56303;52.160;-0.428;2023-05-07T04:04:42;15.90;99.90
20744;DHT22;56303;52.160;-0.428;2023-05-07T04:07:09;15.80;99.90
20744;DHT22;56303;52.160;-0.428;2023-05-07T04:09:36;15.80;99.90
20744;DHT22;56303;52.160;-0.428;2023-05-07T04:12:03;16.90;99.90
20744;DHT22;56303;52.160;-0.428;2023-05-07T04:14:30;15.90;99.90
20744;DHT22;56303;52.160;-0.428;2023-05-07T04:16:59;15.90;99.90
20744;DHT22;56303;52.160;-0.428;2023-05-07T04:19:26;16.10;99.90
20744;DHT22;56303;52.160;-0.428;2023-05-07T04:21:53;15.90;99.90
20744;DHT22;56303;52.160;-0.428;2023-05-07T04:24:20;15.90;99.90
20744;DHT22;56303;52.160;-0.428;2023-05-07T04:26:47;15.90;99.90
20744;DHT22;56303;52.160;-0.428;2023-05-07T04:29:14;15.90;99.90
20744;DHT22;56303;52.160;-0.428;2023-05-07T04:31:41;15.80;99.90
20744;DHT22;56303;52.160;-0.428;2023-05-07T04:34:11;15.80;99.90
20744;DHT22;56303;52.160;-0.428;2023-05-07T04:36:38;15.80;99.90
20744;DHT22;56303;52.160;-0.428;2023-05-07T04:39:05;15.70;99.90
20744;DHT22;56303;52.160;-0.428;2023-05-07T04:41:35;15.80;99.90
20744;DHT22;56303;52.160;-0.428;2023-05-07T04:44:02;15.80;99.90
20744;DHT22;56303;52.160;-0.428;2023-05-07T04:46:30;15.80;99.90
20744;DHT22;56303;52.160;-0.428;2023-05-07T04:48:57;15.90;99.90
20744;DHT22;56303;52.160;-0.428;2023-05-07T04:51:24;15.90;99.90
20744;DHT22;56303;52.160;-0.428;2023-05-07T04:53:51;15.90;99.90
20744;DHT22;56303;52.160;-0.428;2023-05-07T04:56:18;15.90;99.90
20744;DHT22;56303;52.160;-0.428;2023-05-07T04:58:45;15.90;99.90
20744;DHT22;56303;52.160;-0.428;2023-05-07T05:01:12;16.00;99.90
20744;DHT22;56303;52.160;-0.428;2023-05-07T05:03:39;16.00;99.90
20744;DHT22;56303;52.160;-0.428;2023-05-07T05:06:06;16.00;99.90
20744;DHT22;56303;52.160;-0.428;2023-05-07T05:08:33;14.30;99.90
20744;DHT22;56303;52.160;-0.428;2023-05-07T05:11:01;16.10;99.90
20744;DHT22;56303;52.160;-0.428;2023-05-07T05:13:28;16.10;99.90
20744;DHT22;56303;52.160;-0.428;2023-05-07T05:15:56;16.10;99.90
20744;DHT22;56303;52.160;-0.428;2023-05-07T05:18:22;18.00;99.90
20744;DHT22;56303;52.160;-0.428;2023-05-07T05:20:51;16.40;99.90
20744;DHT22;56303;52.160;-0.428;2023-05-07T05:23:19;16.40;99.90
20744;DHT22;56303;52.160;-0.428;2023-05-07T05:25:46;16.40;99.90
20744;DHT22;56303;52.160;-0.428;2023-05-07T05:28:13;16.40;99.90
20744;DHT22;56303;52.160;-0.428;2023-05-07T05:30:40;16.40;99.90
20744;DHT22;56303;52.160;-0.428;2023-05-07T05:33:06;16.40;99.90
20744;DHT22;56303;52.160;-0.428;2023-05-07T05:35:33;16.40;99.90
20744;DHT22;56303;52.160;-0.428;2023-05-07T05:38:02;16.40;99.90
20744;DHT22;56303;52.160;-0.428;2023-05-07T05:40:29;16.50;99.90
20744;DHT22;56303;52.160;-0.428;2023-05-07T05:42:56;16.60;99.90
20744;DHT22;56303;52.160;-0.428;2023-05-07T05:45:23;16.60;99.90
20744;DHT22;56303;52.160;-0.428;2023-05-07T05:47:50;16.70;99.90
20744;DHT22;56303;52.160;-0.428;2023-05-07T05:50:17;16.70;99.90
20744;DHT22;56303;52.160;-0.428;2023-05-07T05:52:44;16.70;99.90
20744;DHT22;56303;52.160;-0.428;2023-05-07T05:55:11;16.70;99.90
20744;DHT22;56303;52.160;-0.428;2023-05-07T05:57:38;16.80;99.90
20744;DHT22;56303;52.160;-0.428;2023-05-07T06:00:05;16.70;99.90
20744;DHT22;56303;52.160;-0.428;2023-05-07T06:02:33;16.70;99.90
20744;DHT22;56303;52.160;-0.428;2023-05-07T06:05:00;16.60;99.90
20744;DHT22;56303;52.160;-0.428;2023-05-07T06:07:26;16.50;99.90
20744;DHT22;56303;52.160;-0.428;2023-05-07T06:09:53;16.60;99.90
20744;DHT22;56303;52.160;-0.428;2023-05-07T06:12:21;16.60;99.90
20744;DHT22;56303;52.160;-0.428;2023-05-07T06:14:48;16.50;99.90
20744;DHT22;56303;52.160;-0.428;2023-05-07T06:17:14;16.60;99.90
20744;DHT22;56303;52.160;-0.428;2023-05-07T06:19:41;16.70;99.90
20744;DHT22;56303;52.160;-0.428;2023-05-07T06:22:08;16.60;99.90
20744;DHT22;56303;52.160;-0.428;2023-05-07T06:24:35;16.60;99.90
20744;DHT22;56303;52.160;-0.428;2023-05-07T06:27:02;16.50;99.90
20744;DHT22;56303;52.160;-0.428;2023-05-07T06:29:29;16.50;99.90
20744;DHT22;56303;52.160;-0.428;2023-05-07T06:32:12;16.60;99.90
20744;DHT22;56303;52.160;-0.428;2023-05-07T06:34:40;16.40;99.90
20744;DHT22;56303;52.160;-0.428;2023-05-07T06:37:07;16.50;99.90
20744;DHT22;56303;52.160;-0.428;2023-05-07T06:39:34;16.50;99.90
20744;DHT22;56303;52.160;-0.428;2023-05-07T06:42:01;16.50;99.90
20744;DHT22;56303;52.160;-0.428;2023-05-07T06:44:28;16.50;99.90
20744;DHT22;56303;52.160;-0.428;2023-05-07T06:46:56;16.50;99.90
20744;DHT22;56303;52.160;-0.428;2023-05-07T06:49:23;16.80;99.90
20744;DHT22;56303;52.160;-0.428;2023-05-07T06:51:49;17.00;99.90
20744;DHT22;56303;52.160;-0.428;2023-05-07T06:54:16;17.00;99.90
20744;DHT22;56303;52.160;-0.428;2023-05-07T06:56:43;17.00;99.90
20744;DHT22;56303;52.160;-0.428;2023-05-07T06:59:11;17.10;99.90
20744;DHT22;56303;52.160;-0.428;2023-05-07T07:01:38;17.10;99.90
20744;DHT22;56303;52.160;-0.428;2023-05-07T07:04:05;17.30;99.90
20744;DHT22;56303;52.160;-0.428;2023-05-07T07:06:31;17.40;99.90
20744;DHT22;56303;52.160;-0.428;2023-05-07T07:09:00;17.40;99.90
20744;DHT22;56303;52.160;-0.428;2023-05-07T07:11:27;17.20;99.90
20744;DHT22;56303;52.160;-0.428;2023-05-07T07:13:53;17.20;99.90
20744;DHT22;56303;52.160;-0.428;2023-05-07T07:16:21;17.20;99.90
20744;DHT22;56303;52.160;-0.428;2023-05-07T07:18:48;17.50;99.90
20744;DHT22;56303;52.160;-0.428;2023-05-07T07:21:15;17.50;99.90
20744;DHT22;56303;52.160;-0.428;2023-05-07T07:23:42;17.50;99.90
20744;DHT22;56303;52.160;-0.428;2023-05-07T07:26:10;17.60;99.90
20744;DHT22;56303;52.160;-0.428;2023-05-07T07:28:45;17.60;99.90
20744;DHT22;56303;52.160;-0.428;2023-05-07T07:31:13;17.30;99.90
20744;DHT22;56303;52.160;-0.428;2023-05-07T07:33:41;17.30;99.90
20744;DHT22;56303;52.160;-0.428;2023-05-07T07:36:08;17.40;99.90
20744;DHT22;56303;52.160;-0.428;2023-05-07T07:38:35;17.40;99.90
20744;DHT22;56303;52.160;-0.428;2023-05-07T07:41:02;17.00;99.90
20744;DHT22;56303;52.160;-0.428;2023-05-07T07:43:29;17.00;99.90
20744;DHT22;56303;52.160;-0.428;2023-05-07T07:45:55;17.20;99.90
20744;DHT22;56303;52.160;-0.428;2023-05-07T07:48:22;17.10;99.90
20744;DHT22;56303;52.160;-0.428;2023-05-07T07:50:49;17.00;99.90
20744;DHT22;56303;52.160;-0.428;2023-05-07T07:53:19;17.40;99.90
20744;DHT22;56303;52.160;-0.428;2023-05-07T07:55:46;17.00;99.90
20744;DHT22;56303;52.160;-0.428;2023-05-07T07:58:12;17.30;99.90
20744;DHT22;56303;52.160;-0.428;2023-05-07T08:00:39;17.30;99.90
20744;DHT22;56303;52.160;-0.428;2023-05-07T08:03:09;17.40;99.90
20744;DHT22;56303;52.160;-0.428;2023-05-07T08:05:37;17.50;99.90
20744;DHT22;56303;52.160;-0.428;2023-05-07T08:08:05;17.60;99.90
20744;DHT22;56303;52.160;-0.428;2023-05-07T08:10:32;17.80;99.90
20744;DHT22;56303;52.160;-0.428;2023-05-07T08:13:01;17.70;99.90
20744;DHT22;56303;52.160;-0.428;2023-05-07T08:15:31;17.40;99.90
20744;DHT22;56303;52.160;-0.428;2023-05-07T08:17:58;17.50;99.90
20744;DHT22;56303;52.160;-0.428;2023-05-07T08:20:27;17.70;99.90
20744;DHT22;56303;52.160;-0.428;2023-05-07T08:22:54;18.00;99.90
20744;DHT22;56303;52.160;-0.428;2023-05-07T08:25:21;17.40;99.90
20744;DHT22;56303;52.160;-0.428;2023-05-07T08:27:48;17.60;99.90
20744;DHT22;56303;52.160;-0.428;2023-05-07T08:30:15;17.90;99.90
20744;DHT22;56303;52.160;-0.428;2023-05-07T08:32:42;17.90;99.90
20744;DHT22;56303;52.160;-0.428;2023-05-07T08:35:09;18.20;99.90
20744;DHT22;56303;52.160;-0.428;2023-05-07T08:37:36;18.20;99.90
20744;DHT22;56303;52.160;-0.428;2023-05-07T08:40:03;17.90;99.90
20744;DHT22;56303;52.160;-0.428;2023-05-07T08:42:35;18.10;99.90
20744;DHT22;56303;52.160;-0.428;2023-05-07T08:45:09;18.40;99.90
20744;DHT22;56303;52.160;-0.428;2023-05-07T08:47:58;18.10;99.90
20744;DHT22;56303;52.160;-0.428;2023-05-07T08:50:25;18.20;99.90
20744;DHT22;56303;52.160;-0.428;2023-05-07T08:52:52;18.30;99.90
20744;DHT22;56303;52.160;-0.428;2023-05-07T08:55:20;18.00;99.90
20744;DHT22;56303;52.160;-0.428;2023-05-07T08:57:47;17.90;99.90
20744;DHT22;56303;52.160;-0.428;2023-05-07T09:00:15;18.00;99.90
20744;DHT22;56303;52.160;-0.428;2023-05-07T09:02:42;18.30;99.90
20744;DHT22;56303;52.160;-0.428;2023-05-07T09:05:09;18.40;99.90
20744;DHT22;56303;52.160;-0.428;2023-05-07T09:07:36;18.70;99.90
20744;DHT22;56303;52.160;-0.428;2023-05-07T09:10:04;19.00;99.90
20744;DHT22;56303;52.160;-0.428;2023-05-07T09:12:31;18.60;99.90
20744;DHT22;56303;52.160;-0.428;2023-05-07T09:14:59;18.40;99.90
20744;DHT22;56303;52.160;-0.428;2023-05-07T09:17:26;17.80;99.90
20744;DHT22;56303;52.160;-0.428;2023-05-07T09:19:53;17.60;99.90
20744;DHT22;56303;52.160;-0.428;2023-05-07T09:22:20;18.10;99.90
20744;DHT22;56303;52.160;-0.428;2023-05-07T09:24:49;18.70;99.90
20744;DHT22;56303;52.160;-0.428;2023-05-07T09:27:17;18.90;99.90
20744;DHT22;56303;52.160;-0.428;2023-05-07T09:29:45;19.10;99.90
20744;DHT22;56303;52.160;-0.428;2023-05-07T09:32:11;18.70;99.90
20744;DHT22;56303;52.160;-0.428;2023-05-07T09:34:39;19.50;99.90
20744;DHT22;56303;52.160;-0.428;2023-05-07T09:37:06;19.90;99.90
20744;DHT22;56303;52.160;-0.428;2023-05-07T09:39:48;19.90;99.90
20744;DHT22;56303;52.160;-0.428;2023-05-07T09:42:15;19.40;99.90
20744;DHT22;56303;52.160;-0.428;2023-05-07T09:44:45;18.80;99.90
20744;DHT22;56303;52.160;-0.428;2023-05-07T09:47:19;18.90;99.90
20744;DHT22;56303;52.160;-0.428;2023-05-07T09:49:50;18.70;99.90
20744;DHT22;56303;52.160;-0.428;2023-05-07T09:52:20;19.00;99.90
20744;DHT22;56303;52.160;-0.428;2023-05-07T09:54:55;18.90;99.90
20744;DHT22;56303;52.160;-0.428;2023-05-07T09:57:24;18.90;99.90
20744;DHT22;56303;52.160;-0.428;2023-05-07T09:59:52;18.80;99.90
20744;DHT22;56303;52.160;-0.428;2023-05-07T10:02:20;18.80;99.90
20744;DHT22;56303;52.160;-0.428;2023-05-07T10:04:48;18.80;99.90
20744;DHT22;56303;52.160;-0.428;2023-05-07T10:07:16;18.90;99.90
20744;DHT22;56303;52.160;-0.428;2023-05-07T10:09:44;18.70;99.90
20744;DHT22;56303;52.160;-0.428;2023-05-07T10:12:15;18.70;99.90
20744;DHT22;56303;52.160;-0.428;2023-05-07T10:14:43;19.00;99.90
20744;DHT22;56303;52.160;-0.428;2023-05-07T10:17:11;19.50;99.90
20744;DHT22;56303;52.160;-0.428;2023-05-07T10:19:39;19.60;99.90
20744;DHT22;56303;52.160;-0.428;2023-05-07T10:22:07;19.60;99.90
20744;DHT22;56303;52.160;-0.428;2023-05-07T10:24:36;20.10;99.90
20744;DHT22;56303;52.160;-0.428;2023-05-07T10:27:12;20.20;99.90
20744;DHT22;56303;52.160;-0.428;2023-05-07T10:30:07;20.20;99.90
20744;DHT22;56303;52.160;-0.428;2023-05-07T10:32:45;19.90;99.90
20744;DHT22;56303;52.160;-0.428;2023-05-07T10:35:29;19.20;99.90
20744;DHT22;56303;52.160;-0.428;2023-05-07T10:37:58;19.30;99.90
20744;DHT22;56303;52.160;-0.428;2023-05-07T10:40:25;19.00;99.90
20744;DHT22;56303;52.160;-0.428;2023-05-07T10:43:04;19.10;99.90
20744;DHT22;56303;52.160;-0.428;2023-05-07T10:45:36;19.30;99.90
20744;DHT22;56303;52.160;-0.428;2023-05-07T10:51:18;19.30;99.90
20744;DHT22;56303;52.160;-0.428;2023-05-07T10:53:46;19.90;99.90
20744;DHT22;56303;52.160;-0.428;2023-05-07T10:58:46;19.70;99.90
20744;DHT22;56303;52.160;-0.428;2023-05-07T11:01:13;20.00;99.90
20744;DHT22;56303;52.160;-0.428;2023-05-07T11:04:13;20.00;99.90
20744;DHT22;56303;52.160;-0.428;2023-05-07T11:06:40;20.10;99.90
20744;DHT22;56303;52.160;-0.428;2023-05-07T11:09:07;20.00;99.90
20744;DHT22;56303;52.160;-0.428;2023-05-07T11:11:45;20.10;99.90
20744;DHT22;56303;52.160;-0.428;2023-05-07T11:14:14;19.90;99.90
20744;DHT22;56303;52.160;-0.428;2023-05-07T11:17:04;20.40;99.90
20744;DHT22;56303;52.160;-0.428;2023-05-07T11:19:50;20.00;99.90
20744;DHT22;56303;52.160;-0.428;2023-05-07T11:25:02;19.60;99.90
20744;DHT22;56303;52.160;-0.428;2023-05-07T11:27:30;19.50;99.90
20744;DHT22;56303;52.160;-0.428;2023-05-07T11:29:56;19.90;99.90
20744;DHT22;56303;52.160;-0.428;2023-05-07T11:32:28;20.00;99.90
20744;DHT22;56303;52.160;-0.428;2023-05-07T11:34:58;20.40;99.90
20744;DHT22;56303;52.160;-0.428;2023-05-07T11:37:27;20.80;99.90
20744;DHT22;56303;52.160;-0.428;2023-05-07T11:40:05;21.20;99.90
20744;DHT22;56303;52.160;-0.428;2023-05-07T11:42:38;21.30;99.90
20744;DHT22;56303;52.160;-0.428;2023-05-07T11:45:06;21.50;99.90
20744;DHT22;56303;52.160;-0.428;2023-05-07T11:47:34;21.90;99.90
20744;DHT22;56303;52.160;-0.428;2023-05-07T11:50:06;21.40;99.90
20744;DHT22;56303;52.160;-0.428;2023-05-07T11:52:34;21.30;99.90
20744;DHT22;56303;52.160;-0.428;2023-05-07T11:55:02;21.20;99.90
20744;DHT22;56303;52.160;-0.428;2023-05-07T11:57:33;21.50;99.90
20744;DHT22;56303;52.160;-0.428;2023-05-07T12:00:01;21.20;99.90
20744;DHT22;56303;52.160;-0.428;2023-05-07T12:02:32;20.90;99.90
20744;DHT22;56303;52.160;-0.428;2023-05-07T12:05:00;21.50;99.90
20744;DHT22;56303;52.160;-0.428;2023-05-07T12:07:27;21.40;99.90
20744;DHT22;56303;52.160;-0.428;2023-05-07T12:09:54;21.80;99.90
20744;DHT22;56303;52.160;-0.428;2023-05-07T12:12:21;22.30;99.90
20744;DHT22;56303;52.160;-0.428;2023-05-07T12:14:48;22.40;99.90
20744;DHT22;56303;52.160;-0.428;2023-05-07T12:17:15;22.50;99.90
20744;DHT22;56303;52.160;-0.428;2023-05-07T12:19:45;22.50;99.90
20744;DHT22;56303;52.160;-0.428;2023-05-07T12:22:12;22.30;99.90
20744;DHT22;56303;52.160;-0.428;2023-05-07T12:25:00;22.70;99.90
20744;DHT22;56303;52.160;-0.428;2023-05-07T12:27:27;23.00;99.90
20744;DHT22;56303;52.160;-0.428;2023-05-07T12:29:54;24.00;99.90
20744;DHT22;56303;52.160;-0.428;2023-05-07T12:32:21;24.50;99.90
20744;DHT22;56303;52.160;-0.428;2023-05-07T12:34:54;24.10;99.90
20744;DHT22;56303;52.160;-0.428;2023-05-07T12:37:25;24.50;99.90
20744;DHT22;56303;52.160;-0.428;2023-05-07T12:40:14;24.40;99.90
20744;DHT22;56303;52.160;-0.428;2023-05-07T12:42:41;23.90;99.90
20744;DHT22;56303;52.160;-0.428;2023-05-07T12:45:16;23.30;99.90
20744;DHT22;56303;52.160;-0.428;2023-05-07T12:47:47;23.20;99.90
20744;DHT22;56303;52.160;-0.428;2023-05-07T12:50:15;22.70;99.90
20744;DHT22;56303;52.160;-0.428;2023-05-07T12:52:45;22.30;99.90
20744;DHT22;56303;52.160;-0.428;2023-05-07T12:55:14;22.30;99.90
20744;DHT22;56303;52.160;-0.428;2023-05-07T12:57:43;22.80;99.90
20744;DHT22;56303;52.160;-0.428;2023-05-07T13:00:11;22.80;99.90
20744;DHT22;56303;52.160;-0.428;2023-05-07T13:02:39;22.90;99.90
20744;DHT22;56303;52.160;-0.428;2023-05-07T13:05:07;23.60;99.90
20744;DHT22;56303;52.160;-0.428;2023-05-07T13:07:35;24.00;99.90
20744;DHT22;56303;52.160;-0.428;2023-05-07T13:10:04;24.00;99.90
20744;DHT22;56303;52.160;-0.428;2023-05-07T13:12:31;24.80;99.90
20744;DHT22;56303;52.160;-0.428;2023-05-07T13:14:57;25.70;99.90
20744;DHT22;56303;52.160;-0.428;2023-05-07T13:17:25;24.80;99.90
20744;DHT22;56303;52.160;-0.428;2023-05-07T13:19:53;24.70;99.90
20744;DHT22;56303;52.160;-0.428;2023-05-07T13:22:19;24.60;99.90
20744;DHT22;56303;52.160;-0.428;2023-05-07T13:24:46;24.40;99.90
20744;DHT22;56303;52.160;-0.428;2023-05-07T13:27:13;24.30;99.90
20744;DHT22;56303;52.160;-0.428;2023-05-07T13:29:40;24.50;99.90
20744;DHT22;56303;52.160;-0.428;2023-05-07T13:32:07;25.00;99.90
20744;DHT22;56303;52.160;-0.428;2023-05-07T13:34:34;24.40;99.90
20744;DHT22;56303;52.160;-0.428;2023-05-07T13:37:01;24.20;99.90
20744;DHT22;56303;52.160;-0.428;2023-05-07T13:39:28;23.80;99.90
20744;DHT22;56303;52.160;-0.428;2023-05-07T13:41:54;23.30;99.90
20744;DHT22;56303;52.160;-0.428;2023-05-07T13:44:21;23.60;99.90
20744;DHT22;56303;52.160;-0.428;2023-05-07T13:46:48;23.80;99.90
20744;DHT22;56303;52.160;-0.428;2023-05-07T13:49:15;23.90;99.90
20744;DHT22;56303;52.160;-0.428;2023-05-07T13:51:42;24.30;99.90
20744;DHT22;56303;52.160;-0.428;2023-05-07T13:54:09;24.10;99.90
20744;DHT22;56303;52.160;-0.428;2023-05-07T13:56:36;23.90;99.90
20744;DHT22;56303;52.160;-0.428;2023-05-07T13:59:03;23.80;99.90
20744;DHT22;56303;52.160;-0.428;2023-05-07T14:01:31;23.80;99.90
20744;DHT22;56303;52.160;-0.428;2023-05-07T14:03:58;23.60;99.90
20744;DHT22;56303;52.160;-0.428;2023-05-07T14:06:26;23.00;99.90
20744;DHT22;56303;52.160;-0.428;2023-05-07T14:08:53;23.10;99.90
20744;DHT22;56303;52.160;-0.428;2023-05-07T14:11:20;23.60;99.90
20744;DHT22;56303;52.160;-0.428;2023-05-07T14:13:47;23.90;99.90
20744;DHT22;56303;52.160;-0.428;2023-05-07T14:16:15;23.70;99.90
20744;DHT22;56303;52.160;-0.428;2023-05-07T14:18:41;24.80;99.90
20744;DHT22;56303;52.160;-0.428;2023-05-07T14:21:08;25.20;99.90
20744;DHT22;56303;52.160;-0.428;2023-05-07T14:23:36;26.10;99.90
20744;DHT22;56303;52.160;-0.428;2023-05-07T14:26:03;26.00;99.90
20744;DHT22;56303;52.160;-0.428;2023-05-07T14:28:30;26.60;99.90
20744;DHT22;56303;52.160;-0.428;2023-05-07T14:30:57;27.20;99.90
20744;DHT22;56303;52.160;-0.428;2023-05-07T14:33:24;27.60;99.90
20744;DHT22;56303;52.160;-0.428;2023-05-07T14:35:51;27.70;99.90
20744;DHT22;56303;52.160;-0.428;2023-05-07T14:38:18;28.10;99.90
20744;DHT22;56303;52.160;-0.428;2023-05-07T14:40:45;28.80;99.70
20744;DHT22;56303;52.160;-0.428;2023-05-07T14:43:12;28.60;99.90
20744;DHT22;56303;52.160;-0.428;2023-05-07T14:45:38;27.90;99.90
20744;DHT22;56303;52.160;-0.428;2023-05-07T14:48:06;28.40;99.90
20744;DHT22;56303;52.160;-0.428;2023-05-07T14:50:32;27.60;99.90
20744;DHT22;56303;52.160;-0.428;2023-05-07T14:52:59;27.70;99.90
20744;DHT22;56303;52.160;-0.428;2023-05-07T14:55:26;27.70;99.90
20744;DHT22;56303;52.160;-0.428;2023-05-07T14:57:53;27.20;99.90
20744;DHT22;56303;52.160;-0.428;2023-05-07T15:00:20;27.70;99.90
20744;DHT22;56303;52.160;-0.428;2023-05-07T15:02:47;27.90;99.90
20744;DHT22;56303;52.160;-0.428;2023-05-07T15:05:14;27.80;99.90
20744;DHT22;56303;52.160;-0.428;2023-05-07T15:07:41;28.20;99.90
20744;DHT22;56303;52.160;-0.428;2023-05-07T15:10:08;28.60;99.90
20744;DHT22;56303;52.160;-0.428;2023-05-07T15:12:35;29.20;98.90
20744;DHT22;56303;52.160;-0.428;2023-05-07T15:15:02;29.70;98.90
20744;DHT22;56303;52.160;-0.428;2023-05-07T15:17:29;29.20;98.70
20744;DHT22;56303;52.160;-0.428;2023-05-07T15:19:56;28.50;99.10
20744;DHT22;56303;52.160;-0.428;2023-05-07T15:22:23;27.60;99.90
20744;DHT22;56303;52.160;-0.428;2023-05-07T15:24:50;27.40;99.90
20744;DHT22;56303;52.160;-0.428;2023-05-07T15:27:17;26.90;99.90
20744;DHT22;56303;52.160;-0.428;2023-05-07T15:29:43;26.20;99.90
20744;DHT22;56303;52.160;-0.428;2023-05-07T15:32:11;25.20;99.90